Latest Weather Observations for Cape Bruny AWS

IDT60801

Issued at 4:01 am EDT Sunday 14 February 2016 (issued every 30 minutes, with the page automatically refreshed every 10 minutes)

About weather observations | Map of weather stations | Latest weather observations for TAS | Other Formats
Station Details ID: 094198 Name: CAPE BRUNY (CAPE BRUNY) Lat: -43.49 Lon: 147.14 Height: 59.7 m
Data from the previous 72 hours. | See also: Recent months at Cape Bruny AWS
Date/Time
EDT
Temp
°C
App
Temp
°C
Dew
Point
Rel
Hum
%
Delta-T
°C
Wind Press
QNH
hPa
Press
MSL
hPa
Rain
since 9 am
mm
Dir
 
Spd
km/h
Gust
km/h
Spd
kts
Gust
kts
14/04:00am 14.4 10.1 7.0 61 3.6 NNW 19 26 10 14 1000.6 1000.5 0.0
14/03:30am 14.8 9.0 6.1 56 4.2 NW 26 37 14 20 1000.7 1000.6 0.0
14/03:28am 14.9 8.7 6.2 56 4.2 NW 28 46 15 25 1000.7 1000.6 0.0
14/03:00am 14.7 7.7 6.8 59 3.9 WNW 33 44 18 24 1000.8 1000.7 0.0
14/02:30am 14.9 6.7 6.7 58 4.0 WNW 39 52 21 28 1000.9 1000.8 0.0
14/02:26am 14.9 7.5 6.7 58 4.0 WNW 35 52 19 28 1000.9 1000.8 0.0
14/02:00am 14.5 9.7 7.3 62 3.6 WNW 22 30 12 16 1001.4 1001.3 0.0
14/01:30am 14.9 6.2 7.5 61 3.7 W 43 50 23 27 1001.7 1001.7 0.0
14/01:20am 14.9 7.2 7.0 59 3.9 WNW 37 56 20 30 1001.7 1001.7 0.0
14/01:00am 14.9 8.6 7.2 60 3.8 WNW 30 43 16 23 1002.2 1002.1 0.0
14/12:30am 14.6 8.1 8.1 65 3.3 W 32 39 17 21 1002.2 1002.1 0.0
14/12:00am 14.7 7.1 7.7 63 3.5 WNW 37 44 20 24 1002.1 1002.0 0.0
 
Date/Time
EDT
Temp
°C
App
Temp
°C
Dew
Point
Rel
Hum
%
Delta-T
°C
Wind Press
QNH
hPa
Press
MSL
hPa
Rain
since 9 am
mm
Dir
 
Spd
km/h
Gust
km/h
Spd
kts
Gust
kts
13/11:30pm 15.1 7.3 8.1 63 3.5 WNW 39 48 21 26 1002.6 1002.5 0.0
13/11:26pm 15.0 6.8 8.3 64 3.4 WNW 41 48 22 26 1002.6 1002.5 0.0
13/11:00pm 15.4 4.1 7.9 61 3.8 W 57 67 31 36 1002.0 1001.9 0.0
13/10:30pm 15.4 4.3 8.9 65 3.3 W 57 69 31 37 1002.2 1002.1 0.0
13/10:26pm 15.5 4.7 9.2 66 3.2 W 56 67 30 36 1002.4 1002.3 0.0
13/10:00pm 15.7 8.4 10.2 70 2.9 W 39 54 21 29 1003.0 1002.9 0.0
13/09:30pm 15.5 9.5 10.9 74 2.5 WSW 33 43 18 23 1002.7 1002.6 0.0
13/09:00pm 15.6 9.0 11.2 75 2.4 WSW 37 50 20 27 1002.3 1002.2 0.0
13/08:30pm 15.7 9.6 11.7 77 2.2 WSW 35 48 19 26 1002.1 1002.0 0.0
13/08:00pm 16.2 10.1 11.8 75 2.4 WSW 35 46 19 25 1001.9 1001.8 0.0
13/07:30pm 16.1 8.3 11.7 75 2.4 WSW 44 54 24 29 1001.2 1001.1 0.0
13/07:00pm 16.2 7.3 11.8 75 2.4 WSW 50 59 27 32 1000.9 1000.8 0.0
13/06:30pm 15.6 9.0 12.5 82 1.7 WSW 39 48 21 26 1001.0 1000.9 0.0
13/06:00pm 15.2 7.9 12.9 86 1.3 WSW 43 54 23 29 1001.0 1000.9 0.0
13/05:30pm 16.4 10.8 13.3 82 1.7 WSW 35 56 19 30 1000.7 1000.6 0.0
13/05:00pm 17.4 12.3 13.1 76 2.4 WSW 32 52 17 28 1001.0 1000.9 0.0
13/04:57pm 17.8 12.6 13.5 76 2.4 WSW 33 52 18 28 1000.9 1000.8 0.0
13/04:30pm 19.2 16.2 12.7 66 3.7 WSW 20 39 11 21 1001.0 1000.9 0.0
13/04:00pm 22.6 18.5 10.1 45 6.9 WNW 22 30 12 16 1000.8 1000.7 0.0
13/03:30pm 24.1 20.1 10.4 42 7.6 WNW 22 33 12 18 1000.9 1000.8 0.0
13/03:00pm 25.0 19.2 10.8 41 8.0 WNW 32 39 17 21 1001.1 1001.0 0.0
13/02:30pm 24.1 18.9 10.4 42 7.6 WNW 28 37 15 20 1001.4 1001.3 0.0
13/02:00pm 24.8 20.9 9.5 38 8.4 WNW 20 30 11 16 1001.4 1001.3 0.0
13/01:30pm 24.7 21.2 10.2 40 8.0 WNW 19 30 10 16 1001.7 1001.7 0.0
13/01:00pm 22.2 20.8 9.4 44 6.9 WNW 7 13 4 7 1002.2 1002.1 0.0
13/12:30pm 21.8 21.4 9.7 46 6.5 N 2 9 1 5 1002.6 1002.5 0.0
13/12:00pm 22.6 20.8 9.4 43 7.2 WSW 9 13 5 7 1003.0 1002.9 0.0
13/11:30am 22.1 20.0 9.6 45 6.8 WSW 11 19 6 10 1003.3 1003.2 0.0
13/11:00am 21.3 20.7 10.5 50 5.9 W 4 11 2 6 1003.5 1003.4 0.0
13/10:30am 20.2 19.2 11.1 56 5.0 SW 7 9 4 5 1003.8 1003.7 0.0
13/10:00am 20.2 18.3 11.7 58 4.7 N 13 24 7 13 1003.8 1003.7 0.0
13/09:30am 20.1 18.1 11.6 58 4.7 NNE 13 19 7 10 1003.9 1003.8 0.0
13/09:00am 19.8 17.9 11.8 60 4.5 N 13 15 7 8 1004.0 1003.9 0.0
13/08:30am 18.2 17.0 11.5 65 3.7 N 9 15 5 8 1004.4 1004.3 0.0
13/08:00am 17.1 15.8 11.2 68 3.2 NNW 9 11 5 6 1004.2 1004.1 0.0
13/07:30am 17.5 15.8 11.1 66 3.5 W 11 17 6 9 1004.6 1004.5 0.0
13/07:00am 17.3 15.2 11.3 68 3.3 NW 13 19 7 10 1004.4 1004.3 0.0
13/06:30am 16.9 14.5 11.4 70 3.0 NNW 15 20 8 11 1004.0 1003.9 0.0
13/06:00am 15.7 14.0 12.3 80 1.9 N 13 19 7 10 1004.2 1004.1 0.0
13/05:30am 15.7 15.4 13.2 85 1.4 N 7 11 4 6 1004.1 1004.0 0.0
13/05:00am 15.7 15.1 13.5 87 1.2 E 9 11 5 6 1003.7 1003.6 0.0
13/04:30am 16.0 15.1 13.8 87 1.2 N 11 17 6 9 1004.2 1004.1 0.0
13/04:00am 15.9 13.8 13.6 86 1.3 N 17 20 9 11 1004.9 1004.8 0.0
13/03:30am 15.6 14.8 12.9 84 1.5 NNW 9 11 5 6 1005.3 1005.2 0.0
13/03:00am 15.8 15.9 12.7 82 1.7 S 4 7 2 4 1005.8 1005.7 0.0
13/02:30am 15.9 15.0 12.5 80 1.9 NW 9 13 5 7 1005.8 1005.7 0.0
13/02:00am 15.8 15.2 12.4 80 1.9 WNW 7 9 4 5 1006.4 1006.3 0.0
13/01:30am 16.4 15.2 12.9 80 1.9 W 11 15 6 8 1006.8 1006.7 0.0
13/01:00am 17.0 15.1 13.1 78 2.2 W 15 20 8 11 1007.1 1007.0 0.0
13/12:30am 16.6 14.6 12.8 78 2.1 SW 15 20 8 11 1007.3 1007.2 0.0
13/12:00am 17.3 14.8 13.6 79 2.1 SW 19 28 10 15 1007.8 1007.7 0.0
 
Date/Time
EDT
Temp
°C
App
Temp
°C
Dew
Point
Rel
Hum
%
Delta-T
°C
Wind Press
QNH
hPa
Press
MSL
hPa
Rain
since 9 am
mm
Dir
 
Spd
km/h
Gust
km/h
Spd
kts
Gust
kts
12/11:30pm 17.6 16.3 14.7 83 1.7 SW 15 22 8 12 1008.0 1007.9 0.0
12/11:00pm 17.8 16.2 15.1 84 1.6 SW 17 20 9 11 1008.3 1008.2 0.0
12/10:30pm 18.1 18.1 15.2 83 1.7 WNW 9 13 5 7 1008.6 1008.5 0.0
12/10:00pm 18.2 18.4 14.7 80 2.0 W 7 11 4 6 1008.8 1008.7 0.0
12/09:30pm 18.5 18.8 15.0 80 2.0 WNW 7 9 4 5 1009.0 1008.9 0.0
12/09:00pm 18.7 18.3 14.0 74 2.7 NNW 9 11 5 6 1009.1 1009.0 0.0
12/08:30pm 19.8 19.4 14.0 69 3.4 NE 9 15 5 8 1009.2 1009.1 0.0
12/08:00pm 20.8 19.7 14.2 66 3.9 NE 13 19 7 10 1009.7 1009.6 0.0
12/07:30pm 21.0 19.0 13.9 64 4.1 NE 17 22 9 12 1010.0 1009.9 0.0
12/07:00pm 21.5 21.0 13.9 62 4.4 NNW 9 20 5 11 1010.1 1010.0 0.0
12/06:30pm 21.9 21.4 14.8 64 4.2 E 11 15 6 8 1010.3 1010.2 0.0
12/06:00pm 22.1 20.6 14.2 61 4.6 ENE 15 19 8 10 1010.5 1010.4 0.0
12/05:30pm 22.5 21.6 14.9 62 4.5 E 13 17 7 9 1011.0 1010.9 0.0
12/05:00pm 22.4 21.3 14.3 60 4.8 E 13 19 7 10 1011.3 1011.2 0.0
12/04:30pm 23.1 19.7 13.8 55 5.4 E 24 32 13 17 1011.3 1011.2 0.0
12/04:00pm 22.7 19.7 13.7 56 5.2 ESE 22 28 12 15 1011.7 1011.6 0.0
12/03:30pm 22.8 19.1 15.1 62 4.6 ESE 28 32 15 17 1012.3 1012.2 0.0
12/03:00pm 22.3 19.0 14.9 63 4.4 ESE 26 32 14 17 1013.2 1013.1 0.0
12/02:30pm 23.1 20.6 14.1 57 5.3 SE 20 28 11 15 1013.7 1013.6 0.0
12/02:00pm 23.3 21.3 13.8 55 5.6 SE 17 22 9 12 1014.1 1014.0 0.0
12/01:30pm 22.3 21.0 13.6 58 5.0 S 13 17 7 9 1014.6 1014.5 0.0
12/01:00pm 23.0 21.4 14.0 57 5.3 SE 15 20 8 11 1014.9 1014.8 0.0
12/12:30pm 22.4 20.1 11.8 51 6.0 NNE 15 24 8 13 1015.5 1015.4 0.0
12/12:00pm 22.5 20.4 11.3 49 6.2 N 13 26 7 14 1016.1 1016.1 0.0
12/11:30am 20.5 18.9 11.4 56 5.0 NNW 11 20 6 11 1016.5 1016.5 0.0
12/11:00am 19.6 17.2 11.4 59 4.5 NNE 15 20 8 11 1016.8 1016.8 0.0
12/10:30am 19.7 18.1 12.7 64 4.0 NNE 13 20 7 11 1017.3 1017.3 0.0
12/10:00am 18.7 17.0 12.5 67 3.5 NNE 13 19 7 10 1017.5 1017.5 0.0
12/09:30am 18.0 16.5 11.8 67 3.4 NNE 11 17 6 9 1017.8 1017.8 0.0
12/09:00am 17.7 16.6 11.9 69 3.2 NE 9 15 5 8 1017.8 1017.8 0.0
12/08:30am 16.6 15.7 11.5 72 2.8 NNE 7 11 4 6 1018.0 1018.0 0.0
12/08:00am 16.8 16.0 11.7 72 2.8 ENE 7 11 4 6 1017.8 1017.8 0.0
12/07:30am 15.8 14.1 11.2 74 2.5 ENE 11 13 6 7 1017.5 1017.5 0.0
12/07:00am 15.6 13.5 11.0 74 2.5 E 13 15 7 8 1017.5 1017.5 0.0
12/06:30am 15.3 13.9 10.9 75 2.3 E 9 13 5 7 1017.4 1017.4 0.0
12/06:00am 15.1 14.0 10.5 74 2.4 NE 7 9 4 5 1017.2 1017.2 0.0
12/05:30am 15.2 14.6 10.4 73 2.5 E 4 9 2 5 1017.2 1017.2 0.0
12/05:00am 15.2 14.0 10.4 73 2.5 ENE 7 9 4 5 1017.2 1017.2 0.0
12/04:30am 15.3 14.1 10.3 72 2.6 E 7 11 4 6 1017.4 1017.4 0.0
12/04:00am 15.3 14.3 10.3 72 2.6 SE 6 7 3 4 1017.6 1017.6 0.0
12/03:30am 15.2 14.9 10.0 71 2.7 E 2 9 1 5 1017.8 1017.8 0.0
12/03:00am 15.2 14.9 10.0 71 2.7 S 2 7 1 4 1018.0 1018.0 0.0
12/02:30am 15.1 14.7 9.9 71 2.7 SW 2 7 1 4 1018.1 1018.1 0.0
12/02:00am 15.2 15.3 10.0 71 2.7 CALM 0 0 0 0 1018.0 1018.0 0.0
12/01:30am 15.4 14.2 10.2 71 2.7 SW 7 9 4 5 1018.3 1018.3 0.0
12/01:00am 15.3 13.3 10.1 71 2.7 SW 11 15 6 8 1018.6 1018.6 0.0
12/12:30am 15.4 13.7 10.0 70 2.8 SW 9 13 5 7 1018.7 1018.7 0.0
12/12:00am 15.4 13.7 10.0 70 2.8 SW 9 15 5 8 1018.7 1018.7 0.0
 
Date/Time
EDT
Temp
°C
App
Temp
°C
Dew
Point
Rel
Hum
%
Delta-T
°C
Wind Press
QNH
hPa
Press
MSL
hPa
Rain
since 9 am
mm
Dir
 
Spd
km/h
Gust
km/h
Spd
kts
Gust
kts
11/11:30pm 15.5 13.4 9.6 68 3.1 SW 11 17 6 9 1018.8 1018.8 0.0
11/11:00pm 15.4 13.7 9.7 69 3.0 SSW 9 17 5 9 1018.9 1018.9 0.0
11/10:30pm 15.3 13.6 9.7 69 2.9 SW 9 17 5 9 1018.9 1018.9 0.0
11/10:00pm 15.4 12.9 9.7 69 3.0 SW 13 19 7 10 1018.7 1018.7 0.0
11/09:30pm 15.6 12.9 10.2 70 2.8 SW 15 26 8 14 1018.6 1018.6 0.0
11/09:00pm 15.7 13.3 10.2 70 2.9 SW 13 20 7 11 1018.3 1018.3 0.0
11/08:30pm 15.7 12.0 10.0 69 3.0 SW 20 30 11 16 1018.2 1018.2 0.0
11/08:00pm 15.7 12.8 9.8 68 3.1 SW 15 22 8 12 1017.8 1017.8 0.0
11/07:30pm 16.4 13.2 9.8 65 3.5 SW 17 30 9 16 1017.5 1017.5 0.0
11/07:00pm 16.8 13.5 9.7 63 3.7 SSW 17 26 9 14 1017.2 1017.2 0.0
11/06:30pm 17.5 14.8 10.4 63 3.8 SSW 15 30 8 16 1016.9 1016.9 0.0
11/06:00pm 17.5 14.2 9.4 59 4.2 S 17 30 9 16 1016.8 1016.8 0.0
11/05:30pm 18.1 14.5 9.7 58 4.4 SSW 19 30 10 16 1016.7 1016.7 0.0
11/05:00pm 18.0 14.7 9.4 57 4.5 SSW 17 32 9 17 1016.7 1016.7 0.0
11/04:30pm 18.4 14.2 8.4 52 5.2 SW 20 32 11 17 1016.6 1016.6 0.0
11/04:00pm 18.2 12.9 8.5 53 5.0 SW 26 37 14 20 1016.6 1016.6 0.0
11/03:30pm 18.9 14.8 8.8 52 5.3 SW 20 30 11 16 1016.7 1016.7 0.0
11/03:00pm 18.5 13.3 7.3 48 5.7 SW 24 39 13 21 1016.7 1016.7 0.0
11/02:30pm 18.6 13.3 8.6 52 5.2 SW 26 39 14 21 1016.8 1016.8 0.0
11/02:00pm 18.8 13.9 8.5 51 5.3 SW 24 35 13 19 1016.9 1016.9 0.0
11/01:30pm 18.5 12.9 8.7 53 5.1 SW 28 37 15 20 1016.9 1016.9 0.0
11/01:00pm 18.1 12.4 8.4 53 5.0 SW 28 39 15 21 1016.8 1016.8 0.0
11/12:30pm 18.2 12.5 9.8 58 4.5 SW 30 41 16 22 1016.7 1016.7 0.0
11/12:00pm 17.4 12.3 9.1 58 4.3 SW 26 33 14 18 1016.7 1016.7 0.0
11/11:30am 17.9 13.4 10.0 60 4.2 SW 24 33 13 18 1016.6 1016.6 0.0
11/11:00am 17.6 13.3 10.7 64 3.7 SW 24 35 13 19 1016.7 1016.7 0.0
11/10:30am 18.5 15.1 11.1 62 4.0 WSW 20 32 11 17 1016.8 1016.8 0.0
11/10:00am 17.5 13.0 10.1 62 3.9 WSW 24 30 13 16 1016.7 1016.7 0.0
11/09:30am 16.8 11.5 10.0 64 3.6 WSW 28 35 15 19 1016.5 1016.5 0.0
11/09:00am 16.3 10.4 10.6 69 3.0 WSW 32 39 17 21 1016.4 1016.4 1.6
11/08:30am 15.6 10.9 10.6 72 2.7 WSW 26 35 14 19 1016.0 1016.0 1.6
11/08:00am 15.1 9.9 10.3 73 2.5 WSW 28 35 15 19 1015.6 1015.5 1.6
11/07:30am 14.9 10.9 10.5 75 2.3 W 22 30 12 16 1015.2 1015.1 1.6
11/07:00am 14.4 9.9 10.2 76 2.2 WSW 24 32 13 17 1014.9 1014.8 1.6
11/06:30am 14.1 10.1 10.5 79 1.9 W 22 30 12 16 1014.6 1014.5 1.6
11/06:00am 14.2 10.9 10.8 80 1.8 WSW 19 26 10 14 1014.4 1014.3 1.6
11/05:30am 14.3 10.7 10.7 79 1.9 WSW 20 28 11 15 1014.1 1014.0 1.6
11/05:00am 14.5 11.1 11.3 81 1.7 W 20 26 11 14 1013.9 1013.8 1.6
11/04:30am 14.4 9.9 11.4 82 1.6 WSW 26 35 14 19 1013.6 1013.5 1.6

Other Formats:

Comma delimited format used in spreadsheet applications
http://www.bom.gov.au/fwo/IDT60801/IDT60801.95967.axf

JavaScript Object Notation format (JSON) in row-major order
http://www.bom.gov.au/fwo/IDT60801/IDT60801.95967.json